PWSweather.com
Personal Weather Stations
Station Observations
KAZPHOEN90
RayThunderhill, Phoenix, AZ

RayThunderhillPhoenix, AZ

Lat: 33.312, Lon: -112.029

Elevation: 1260

Station Type: Davis Vantage VUE

High Low Average
Temperature 63.1°F17.3°C 48.6°F9.2°C 54.9°F12.7°C
Dew Point 51.1°F10.6°C 38.4°F3.6°C 42.3°F5.7°C
Winds 6.0 mph 9.7 kmh Calm Calm 1.0 mph W1.6 kmh W
Wind Gusts 10.0 mph16.1 kmh -- 2.0 mph3.2 kmh
Humidity 75% 51% 63%
Pressure 30.01 in1016.3 mb 29.69 in1005.4 mb -
Precipitation 0.00 in0.0 mm - -
Hour Temp Dew Point Humidity Winds Wind Gusts Pressure Precip Precip Rate Daily Precip Total
12:00 AM 52.4°F11.3°C 41.0°F5.0°C 65% Calm Calm -- 30.01 in1016.3 mb - 0.00 in0.0 mm 0.00 in0.0 mm
12:15 AM 52.9°F11.6°C 41.0°F5.0°C 64% Calm Calm -- 30.01 in1016.3 mb - 0.00 in0.0 mm 0.00 in0.0 mm
12:30 AM 53.0°F11.7°C 41.5°F5.3°C 65% Calm Calm -- 30.00 in1015.9 mb - 0.00 in0.0 mm 0.00 in0.0 mm
12:45 AM 52.9°F11.6°C 42.2°F5.7°C 67% Calm Calm -- 29.99 in1015.6 mb - 0.00 in0.0 mm 0.00 in0.0 mm
01:00 AM 52.3°F11.3°C 42.1°F5.6°C 68% Calm Calm -- 29.96 in1014.6 mb - 0.00 in0.0 mm 0.00 in0.0 mm
01:15 AM 51.9°F11.1°C 41.7°F5.4°C 68% Calm Calm 1.0 mph1.6 kmh 29.96 in1014.6 mb - 0.00 in0.0 mm 0.00 in0.0 mm
01:30 AM 51.8°F11.0°C 41.6°F5.3°C 68% Calm Calm -- 29.95 in1014.2 mb - 0.00 in0.0 mm 0.00 in0.0 mm
01:45 AM 51.6°F10.9°C 41.0°F5.0°C 67% Calm Calm -- 29.94 in1013.9 mb - 0.00 in0.0 mm 0.00 in0.0 mm
02:00 AM 51.2°F10.7°C 41.0°F5.0°C 68% Calm Calm -- 29.94 in1013.9 mb - 0.00 in0.0 mm 0.00 in0.0 mm
02:15 AM 50.0°F10.0°C 41.3°F5.2°C 72% Calm Calm -- 29.93 in1013.5 mb - 0.00 in0.0 mm 0.00 in0.0 mm
02:30 AM 50.1°F10.1°C 40.7°F4.8°C 70% Calm Calm -- 29.92 in1013.2 mb - 0.00 in0.0 mm 0.00 in0.0 mm
02:45 AM 51.0°F10.6°C 40.5°F4.7°C 67% Calm Calm -- 29.92 in1013.2 mb - 0.00 in0.0 mm 0.00 in0.0 mm
03:00 AM 51.6°F10.9°C 41.0°F5.0°C 67% Calm Calm -- 29.91 in1012.9 mb - 0.00 in0.0 mm 0.00 in0.0 mm
03:15 AM 51.7°F10.9°C 40.7°F4.8°C 66% Calm Calm -- 29.91 in1012.9 mb - 0.00 in0.0 mm 0.00 in0.0 mm
03:30 AM 52.1°F11.2°C 40.3°F4.6°C 64% 0.1 mph NNW0.2 kmh NNW 1.0 mph1.6 kmh 29.91 in1012.9 mb - 0.00 in0.0 mm 0.00 in0.0 mm
03:45 AM 52.6°F11.4°C 39.9°F4.4°C 62% Calm Calm -- 29.91 in1012.9 mb - 0.00 in0.0 mm 0.00 in0.0 mm
04:00 AM 52.4°F11.3°C 39.8°F4.3°C 62% Calm Calm -- 29.92 in1013.2 mb - 0.00 in0.0 mm 0.00 in0.0 mm
04:15 AM 52.2°F11.2°C 40.3°F4.6°C 64% Calm Calm -- 29.91 in1012.9 mb - 0.00 in0.0 mm 0.00 in0.0 mm
04:30 AM 52.4°F11.3°C 40.2°F4.6°C 63% Calm Calm -- 29.90 in1012.5 mb - 0.00 in0.0 mm 0.00 in0.0 mm
04:45 AM 52.0°F11.1°C 40.2°F4.6°C 64% Calm Calm -- 29.89 in1012.2 mb - 0.00 in0.0 mm 0.00 in0.0 mm
05:00 AM 51.5°F10.8°C 39.7°F4.3°C 64% Calm Calm -- 29.89 in1012.2 mb - 0.00 in0.0 mm 0.00 in0.0 mm
05:15 AM 51.0°F10.6°C 39.2°F4.0°C 64% Calm Calm -- 29.87 in1011.5 mb - 0.00 in0.0 mm 0.00 in0.0 mm
05:30 AM 50.1°F10.1°C 39.6°F4.2°C 67% Calm Calm -- 29.87 in1011.5 mb - 0.00 in0.0 mm 0.00 in0.0 mm
05:45 AM 49.3°F9.6°C 39.5°F4.2°C 69% Calm Calm -- 29.88 in1011.9 mb - 0.00 in0.0 mm 0.00 in0.0 mm
06:00 AM 48.9°F9.4°C 39.2°F4.0°C 69% Calm Calm -- 29.87 in1011.5 mb - 0.00 in0.0 mm 0.00 in0.0 mm
06:15 AM 48.6°F9.2°C 39.2°F4.0°C 70% Calm Calm -- 29.88 in1011.9 mb - 0.00 in0.0 mm 0.00 in0.0 mm
06:30 AM 48.8°F9.3°C 39.8°F4.3°C 71% Calm Calm -- 29.87 in1011.5 mb - 0.00 in0.0 mm 0.00 in0.0 mm
06:45 AM 48.7°F9.3°C 39.4°F4.1°C 70% Calm Calm -- 29.87 in1011.5 mb - 0.00 in0.0 mm 0.00 in0.0 mm
07:00 AM 49.2°F9.6°C 39.5°F4.2°C 69% Calm Calm -- 29.86 in1011.2 mb - 0.00 in0.0 mm 0.00 in0.0 mm
07:15 AM 49.4°F9.7°C 39.3°F4.1°C 68% Calm Calm -- 29.87 in1011.5 mb - 0.00 in0.0 mm 0.00 in0.0 mm
07:30 AM 50.8°F10.4°C 39.8°F4.3°C 66% Calm Calm -- 29.86 in1011.2 mb - 0.00 in0.0 mm 0.00 in0.0 mm
07:45 AM 50.8°F10.4°C 39.8°F4.3°C 66% Calm Calm -- 29.87 in1011.5 mb - 0.00 in0.0 mm 0.00 in0.0 mm
08:00 AM 51.3°F10.7°C 39.9°F4.4°C 65% Calm Calm -- 29.86 in1011.2 mb - 0.00 in0.0 mm 0.00 in0.0 mm
08:15 AM 51.7°F10.9°C 40.3°F4.6°C 65% Calm Calm -- 29.86 in1011.2 mb - 0.00 in0.0 mm 0.00 in0.0 mm
08:30 AM 52.4°F11.3°C 39.0°F3.9°C 60% Calm Calm -- 29.86 in1011.2 mb - 0.00 in0.0 mm 0.00 in0.0 mm
08:45 AM 52.9°F11.6°C 39.0°F3.9°C 59% Calm Calm -- 29.87 in1011.5 mb - 0.00 in0.0 mm 0.00 in0.0 mm
09:00 AM 53.3°F11.8°C 39.3°F4.1°C 59% Calm Calm -- 29.87 in1011.5 mb - 0.00 in0.0 mm 0.00 in0.0 mm
09:15 AM 53.7°F12.1°C 38.4°F3.6°C 56% Calm Calm -- 29.88 in1011.9 mb - 0.00 in0.0 mm 0.00 in0.0 mm
09:30 AM 54.3°F12.4°C 39.8°F4.3°C 58% Calm Calm -- 29.88 in1011.9 mb - 0.00 in0.0 mm 0.00 in0.0 mm
09:45 AM 55.3°F12.9°C 41.2°F5.1°C 59% Calm Calm -- 29.88 in1011.9 mb - 0.00 in0.0 mm 0.00 in0.0 mm
10:00 AM 56.5°F13.6°C 41.0°F5.0°C 56% Calm Calm -- 29.88 in1011.9 mb - 0.00 in0.0 mm 0.00 in0.0 mm
10:15 AM 56.8°F13.8°C 40.3°F4.6°C 54% Calm Calm -- 29.88 in1011.9 mb - 0.00 in0.0 mm 0.00 in0.0 mm
10:30 AM 56.9°F13.8°C 40.9°F4.9°C 55% Calm Calm -- 29.87 in1011.5 mb - 0.00 in0.0 mm 0.00 in0.0 mm
10:45 AM 57.2°F14.0°C 40.7°F4.8°C 54% Calm Calm -- 29.87 in1011.5 mb - 0.00 in0.0 mm 0.00 in0.0 mm
11:00 AM 57.4°F14.1°C 40.9°F4.9°C 54% Calm Calm -- 29.86 in1011.2 mb - 0.00 in0.0 mm 0.00 in0.0 mm
11:15 AM 58.4°F14.7°C 41.8°F5.4°C 54% Calm Calm -- 29.86 in1011.2 mb - 0.00 in0.0 mm 0.00 in0.0 mm
11:30 AM 59.4°F15.2°C 42.2°F5.7°C 53% Calm Calm -- 29.85 in1010.8 mb - 0.00 in0.0 mm 0.00 in0.0 mm
11:45 AM 60.4°F15.8°C 43.6°F6.4°C 54% Calm Calm -- 29.84 in1010.5 mb - 0.00 in0.0 mm 0.00 in0.0 mm
12:00 PM 61.2°F16.2°C 42.9°F6.1°C 51% Calm Calm -- 29.83 in1010.2 mb - 0.00 in0.0 mm 0.00 in0.0 mm
12:15 PM 61.4°F16.3°C 44.1°F6.7°C 53% Calm Calm -- 29.82 in1009.8 mb - 0.00 in0.0 mm 0.00 in0.0 mm
12:30 PM 61.9°F16.6°C 45.1°F7.3°C 54% Calm Calm -- 29.81 in1009.5 mb - 0.00 in0.0 mm 0.00 in0.0 mm
12:45 PM 63.1°F17.3°C 45.2°F7.3°C 52% Calm Calm -- 29.80 in1009.1 mb - 0.00 in0.0 mm 0.00 in0.0 mm
01:00 PM 62.8°F17.1°C 45.9°F7.7°C 54% 0.6 mph SW1.0 kmh SW 4.0 mph6.4 kmh 29.78 in1008.5 mb - 0.00 in0.0 mm 0.00 in0.0 mm
01:15 PM 62.6°F17.0°C 46.2°F7.9°C 55% 2.2 mph SW3.5 kmh SW 4.0 mph6.4 kmh 29.77 in1008.1 mb - 0.00 in0.0 mm 0.00 in0.0 mm
01:30 PM 62.4°F16.9°C 46.5°F8.1°C 56% 1.5 mph SW2.4 kmh SW 2.0 mph3.2 kmh 29.76 in1007.8 mb - 0.00 in0.0 mm 0.00 in0.0 mm
01:45 PM 62.1°F16.7°C 46.7°F8.2°C 57% 3.4 mph SW5.5 kmh SW 4.0 mph6.4 kmh 29.75 in1007.5 mb - 0.00 in0.0 mm 0.00 in0.0 mm
02:00 PM 62.2°F16.8°C 46.7°F8.2°C 57% 1.6 mph WSW2.6 kmh WSW 2.0 mph3.2 kmh 29.75 in1007.5 mb - 0.00 in0.0 mm 0.00 in0.0 mm
02:15 PM 62.6°F17.0°C 46.2°F7.9°C 55% 3.5 mph SW5.6 kmh SW 6.0 mph9.7 kmh 29.74 in1007.1 mb - 0.00 in0.0 mm 0.00 in0.0 mm
02:30 PM 62.9°F17.2°C 46.5°F8.1°C 55% 3.2 mph WSW5.1 kmh WSW 9.0 mph14.5 kmh 29.73 in1006.8 mb - 0.00 in0.0 mm 0.00 in0.0 mm
02:45 PM 61.5°F16.4°C 45.7°F7.6°C 56% 1.5 mph NW2.4 kmh NW 4.0 mph6.4 kmh 29.73 in1006.8 mb - 0.00 in0.0 mm 0.00 in0.0 mm
03:00 PM 61.1°F16.2°C 45.3°F7.4°C 56% 0.8 mph WSW1.3 kmh WSW 2.0 mph3.2 kmh 29.73 in1006.8 mb - 0.00 in0.0 mm 0.00 in0.0 mm
03:15 PM 61.4°F16.3°C 47.8°F8.8°C 61% 1.9 mph S3.1 kmh S 4.0 mph6.4 kmh 29.72 in1006.4 mb - 0.00 in0.0 mm 0.00 in0.0 mm
03:30 PM 61.7°F16.5°C 46.3°F7.9°C 57% 2.3 mph NNE3.7 kmh NNE 4.0 mph6.4 kmh 29.71 in1006.1 mb - 0.00 in0.0 mm 0.00 in0.0 mm
03:45 PM 61.5°F16.4°C 46.6°F8.1°C 58% Calm Calm -- 29.71 in1006.1 mb - 0.00 in0.0 mm 0.00 in0.0 mm
04:00 PM 60.9°F16.1°C 48.2°F9.0°C 63% 0.3 mph NW0.5 kmh NW 2.0 mph3.2 kmh 29.71 in1006.1 mb - 0.00 in0.0 mm 0.00 in0.0 mm
04:15 PM 59.4°F15.2°C 51.1°F10.6°C 74% 0.3 mph NW0.5 kmh NW 1.0 mph1.6 kmh 29.71 in1006.1 mb - 0.00 in0.0 mm 0.00 in0.0 mm
04:30 PM 59.5°F15.3°C 50.1°F10.1°C 71% 0.1 mph NW0.2 kmh NW -- 29.70 in1005.8 mb - 0.00 in0.0 mm 0.00 in0.0 mm
04:45 PM 59.5°F15.3°C 49.0°F9.4°C 68% 0.7 mph W1.1 kmh W 1.0 mph1.6 kmh 29.70 in1005.8 mb - 0.00 in0.0 mm 0.00 in0.0 mm
05:00 PM 59.6°F15.3°C 48.2°F9.0°C 66% 0.8 mph NNW1.3 kmh NNW 1.0 mph1.6 kmh 29.70 in1005.8 mb - 0.00 in0.0 mm 0.00 in0.0 mm
05:15 PM 58.6°F14.8°C 48.0°F8.9°C 68% 3.0 mph NW4.8 kmh NW 5.0 mph8.0 kmh 29.70 in1005.8 mb - 0.00 in0.0 mm 0.00 in0.0 mm
05:30 PM 58.2°F14.6°C 46.9°F8.3°C 66% 1.4 mph NW2.3 kmh NW 4.0 mph6.4 kmh 29.70 in1005.8 mb - 0.00 in0.0 mm 0.00 in0.0 mm
05:45 PM 57.9°F14.4°C 46.6°F8.1°C 66% 1.4 mph SW2.3 kmh SW 4.0 mph6.4 kmh 29.70 in1005.8 mb - 0.00 in0.0 mm 0.00 in0.0 mm
06:00 PM 57.5°F14.2°C 46.2°F7.9°C 66% 0.2 mph W0.3 kmh W 1.0 mph1.6 kmh 29.69 in1005.4 mb - 0.00 in0.0 mm 0.00 in0.0 mm
06:15 PM 57.4°F14.1°C 44.5°F6.9°C 62% 1.4 mph WSW2.3 kmh WSW 5.0 mph8.0 kmh 29.70 in1005.8 mb - 0.00 in0.0 mm 0.00 in0.0 mm
06:30 PM 57.4°F14.1°C 42.3°F5.7°C 57% 0.8 mph NW1.3 kmh NW 2.0 mph3.2 kmh 29.70 in1005.8 mb - 0.00 in0.0 mm 0.00 in0.0 mm
06:45 PM 57.9°F14.4°C 41.3°F5.2°C 54% 0.6 mph SW1.0 kmh SW 4.0 mph6.4 kmh 29.71 in1006.1 mb - 0.00 in0.0 mm 0.00 in0.0 mm
07:00 PM 57.8°F14.3°C 40.8°F4.9°C 53% 1.1 mph NW1.8 kmh NW 2.0 mph3.2 kmh 29.70 in1005.8 mb - 0.00 in0.0 mm 0.00 in0.0 mm
07:15 PM 57.7°F14.3°C 40.7°F4.8°C 53% 0.2 mph SW0.3 kmh SW 2.0 mph3.2 kmh 29.70 in1005.8 mb - 0.00 in0.0 mm 0.00 in0.0 mm
07:30 PM 57.5°F14.2°C 40.0°F4.4°C 52% 0.5 mph WSW0.8 kmh WSW 1.0 mph1.6 kmh 29.72 in1006.4 mb - 0.00 in0.0 mm 0.00 in0.0 mm
07:45 PM 57.4°F14.1°C 39.9°F4.4°C 52% 3.5 mph W5.6 kmh W 5.0 mph8.0 kmh 29.71 in1006.1 mb - 0.00 in0.0 mm 0.00 in0.0 mm
08:00 PM 56.6°F13.7°C 42.0°F5.6°C 58% 5.1 mph NW8.2 kmh NW 8.0 mph12.9 kmh 29.72 in1006.4 mb - 0.00 in0.0 mm 0.00 in0.0 mm
08:15 PM 53.8°F12.1°C 42.7°F5.9°C 66% 5.2 mph WNW8.4 kmh WNW 10.0 mph16.1 kmh 29.73 in1006.8 mb - 0.00 in0.0 mm 0.00 in0.0 mm
08:30 PM 52.4°F11.3°C 43.6°F6.4°C 72% 6.0 mph NW9.7 kmh NW 8.0 mph12.9 kmh 29.74 in1007.1 mb - 0.00 in0.0 mm 0.00 in0.0 mm
08:45 PM 50.7°F10.4°C 43.1°F6.2°C 75% 4.2 mph WNW6.8 kmh WNW 8.0 mph12.9 kmh 29.74 in1007.1 mb - 0.00 in0.0 mm 0.00 in0.0 mm
09:00 PM 50.1°F10.1°C 42.1°F5.6°C 74% 4.3 mph W6.9 kmh W 9.0 mph14.5 kmh 29.74 in1007.1 mb - 0.00 in0.0 mm 0.00 in0.0 mm
09:15 PM 50.0°F10.0°C 41.7°F5.4°C 73% 4.7 mph WSW7.6 kmh WSW 7.0 mph11.3 kmh 29.74 in1007.1 mb - 0.00 in0.0 mm 0.00 in0.0 mm
09:30 PM 50.1°F10.1°C 41.4°F5.2°C 72% 2.2 mph W3.5 kmh W 3.0 mph4.8 kmh 29.75 in1007.5 mb - 0.00 in0.0 mm 0.00 in0.0 mm
09:45 PM 50.6°F10.3°C 40.8°F4.9°C 69% 3.2 mph WSW5.1 kmh WSW 7.0 mph11.3 kmh 29.74 in1007.1 mb - 0.00 in0.0 mm 0.00 in0.0 mm
10:00 PM 50.6°F10.3°C 41.2°F5.1°C 70% 2.9 mph W4.7 kmh W 5.0 mph8.0 kmh 29.74 in1007.1 mb - 0.00 in0.0 mm 0.00 in0.0 mm
10:15 PM 50.6°F10.3°C 41.2°F5.1°C 70% 2.1 mph W3.4 kmh W 5.0 mph8.0 kmh 29.74 in1007.1 mb - 0.00 in0.0 mm 0.00 in0.0 mm
10:30 PM 50.9°F10.5°C 41.1°F5.1°C 69% 1.8 mph WNW2.9 kmh WNW 4.0 mph6.4 kmh 29.74 in1007.1 mb - 0.00 in0.0 mm 0.00 in0.0 mm
10:45 PM 50.8°F10.4°C 41.0°F5.0°C 69% 0.6 mph WSW1.0 kmh WSW 2.0 mph3.2 kmh 29.75 in1007.5 mb - 0.00 in0.0 mm 0.00 in0.0 mm
11:00 PM 50.7°F10.4°C 40.9°F4.9°C 69% 1.3 mph WSW2.1 kmh WSW 4.0 mph6.4 kmh 29.75 in1007.5 mb - 0.00 in0.0 mm 0.00 in0.0 mm
11:15 PM 50.7°F10.4°C 40.5°F4.7°C 68% 1.3 mph WSW2.1 kmh WSW 2.0 mph3.2 kmh 29.75 in1007.5 mb - 0.00 in0.0 mm 0.00 in0.0 mm
11:30 PM 50.7°F10.4°C 40.2°F4.6°C 67% 0.6 mph SW1.0 kmh SW 3.0 mph4.8 kmh 29.75 in1007.5 mb - 0.00 in0.0 mm 0.00 in0.0 mm
11:45 PM 50.8°F10.4°C 40.2°F4.6°C 67% 0.1 mph W0.2 kmh W 4.0 mph6.4 kmh 29.76 in1007.8 mb - 0.00 in0.0 mm 0.00 in0.0 mm